Time;durP1;ratioP1;P1;durP2;ratioP2;P2;SDS_P1;SDS_P2;PMS_P1;PMS_P2;Temp;Humidity;BMP_temperature;BMP_pressure;BME280_temperature;BME280_humidity;BME280_pressure;Samples;Min_cycle;Max_cycle;Signal;HPM_P1;HPM_P2
2022/08/08 00:01:39;;;;;;;2.55;1.45;;;;;;;;;;5050330;28;20550;-66
2022/08/08 00:04:44;;;;;;;2.75;1.60;;;;;;;;;;5069293;28;20032;-66
2022/08/08 00:07:41;;;;;;;4.28;2.67;;;;;;;;;;5070330;28;20533;-67
2022/08/08 00:10:27;;;;;;;5.47;2.28;;;;;;;;;;5065547;28;20467;-67
2022/08/08 00:13:18;;;;;;;2.63;1.40;;;;;;;;;;5070612;28;20016;-66
2022/08/08 00:16:06;;;;;;;2.55;1.80;;;;;;;;;;5063999;28;20021;-66
2022/08/08 00:19:00;;;;;;;2.75;1.55;;;;;;;;;;5071327;28;20024;-61
2022/08/08 00:21:48;;;;;;;2.30;1.50;;;;;;;;;;5071577;28;20109;-61
2022/08/08 00:24:41;;;;;;;3.92;1.73;;;;;;;;;;5059902;28;20099;-65
2022/08/08 00:27:27;;;;;;;1.20;1.10;;;;;;;;;;5065001;28;20031;-60
2022/08/08 00:30:12;;;;;;;1.27;1.17;;;;;;;;;;5067075;28;20021;-65
2022/08/08 00:33:11;;;;;;;1.52;1.30;;;;;;;;;;5065351;28;20032;-62
2022/08/08 00:36:03;;;;;;;2.37;1.57;;;;;;;;;;5060690;28;20090;-63
2022/08/08 00:38:58;;;;;;;1.88;1.60;;;;;;;;;;5065677;28;20266;-64
2022/08/08 00:41:56;;;;;;;2.30;1.33;;;;;;;;;;5055659;28;20048;-66
2022/08/08 00:45:16;;;;;;;1.48;1.20;;;;;;;;;;5061638;28;20035;-65
2022/08/08 00:48:27;;;;;;;2.17;1.20;;;;;;;;;;4961153;28;20023;-63
2022/08/08 00:51:31;;;;;;;2.00;1.40;;;;;;;;;;5072162;28;20387;-64
2022/08/08 00:54:23;;;;;;;2.42;1.65;;;;;;;;;;5070371;28;20407;-62
2022/08/08 00:57:34;;;;;;;3.40;1.58;;;;;;;;;;5061769;28;20032;-62
2022/08/08 01:00:20;;;;;;;1.63;1.40;;;;;;;;;;5055032;28;20093;-63
2022/08/08 01:03:23;;;;;;;2.22;1.40;;;;;;;;;;5095814;28;20019;-63
2022/08/08 01:06:30;;;;;;;1.35;1.25;;;;;;;;;;5078443;28;20038;-64
2022/08/08 01:09:33;;;;;;;3.60;1.45;;;;;;;;;;5082601;28;20028;-61
2022/08/08 01:12:28;;;;;;;2.70;1.60;;;;;;;;;;5086509;28;20065;-66
2022/08/08 01:15:32;;;;;;;1.65;1.30;;;;;;;;;;5080815;28;20433;-63
2022/08/08 01:24:37;;;;;;;2.72;1.88;;;;;;;;;;5155287;22;20044;-68
2022/08/08 01:27:34;;;;;;;1.60;1.27;;;;;;;;;;5089895;28;20062;-64
2022/08/08 01:30:39;;;;;;;1.80;1.30;;;;;;;;;;5090740;28;20036;-65
2022/08/08 01:33:39;;;;;;;1.77;1.30;;;;;;;;;;5080302;28;20359;-64
2022/08/08 01:36:44;;;;;;;1.85;1.27;;;;;;;;;;5087685;28;20388;-65
2022/08/08 01:39:32;;;;;;;1.85;1.20;;;;;;;;;;5089456;28;20056;-62
2022/08/08 01:42:47;;;;;;;2.78;1.38;;;;;;;;;;5089521;28;20110;-68
2022/08/08 01:45:51;;;;;;;1.50;1.40;;;;;;;;;;5087610;28;20039;-68
2022/08/08 01:49:06;;;;;;;1.70;1.30;;;;;;;;;;5090463;28;20048;-69
2022/08/08 01:52:08;;;;;;;3.55;1.50;;;;;;;;;;5083406;28;20630;-68
2022/08/08 01:55:12;;;;;;;2.03;1.27;;;;;;;;;;5089100;28;20184;-69
2022/08/08 01:57:57;;;;;;;4.60;1.40;;;;;;;;;;5088853;28;20040;-69
2022/08/08 02:01:01;;;;;;;2.00;1.23;;;;;;;;;;5083175;28;20036;-66
2022/08/08 02:03:56;;;;;;;2.92;1.20;;;;;;;;;;5090111;28;20021;-66
2022/08/08 02:06:49;;;;;;;3.80;1.35;;;;;;;;;;5088330;28;20032;-66
2022/08/08 02:09:40;;;;;;;1.40;1.30;;;;;;;;;;5094601;28;20035;-65
2022/08/08 02:12:44;;;;;;;6.30;1.65;;;;;;;;;;5089867;28;20213;-67
2022/08/08 02:15:34;;;;;;;3.17;1.55;;;;;;;;;;5084928;28;20154;-70
2022/08/08 02:18:39;;;;;;;1.83;1.30;;;;;;;;;;5083232;28;20024;-67
2022/08/08 02:24:36;;;;;;;2.80;1.88;;;;;;;;;;5077911;28;20469;-69
2022/08/08 02:27:33;;;;;;;2.35;1.30;;;;;;;;;;5079624;28;20042;-69
2022/08/08 02:30:21;;;;;;;2.05;1.30;;;;;;;;;;5087785;28;20035;-69
2022/08/08 02:33:18;;;;;;;2.53;1.23;;;;;;;;;;5089058;28;20111;-67
2022/08/08 02:36:22;;;;;;;3.33;1.90;;;;;;;;;;5086513;28;20482;-67
2022/08/08 02:39:28;;;;;;;2.05;1.30;;;;;;;;;;5090647;28;20028;-70
2022/08/08 02:42:33;;;;;;;1.90;1.38;;;;;;;;;;5091996;28;20046;-67
2022/08/08 02:45:18;;;;;;;3.10;1.70;;;;;;;;;;5090910;28;20466;-66
2022/08/08 02:48:14;;;;;;;1.67;1.38;;;;;;;;;;5092470;28;20027;-67
2022/08/08 02:51:03;;;;;;;2.97;1.30;;;;;;;;;;5088961;28;20505;-61
2022/08/08 02:53:56;;;;;;;1.58;1.25;;;;;;;;;;5092258;28;20039;-68
2022/08/08 02:56:42;;;;;;;1.83;1.40;;;;;;;;;;5069938;28;20042;-67
2022/08/08 02:59:50;;;;;;;1.95;1.27;;;;;;;;;;5092046;28;20035;-67
2022/08/08 03:02:39;;;;;;;3.90;1.40;;;;;;;;;;5087893;28;20186;-67
2022/08/08 03:05:37;;;;;;;4.10;1.50;;;;;;;;;;5088138;28;20047;-67
2022/08/08 03:08:41;;;;;;;2.95;1.70;;;;;;;;;;5082494;28;20093;-67
2022/08/08 03:11:45;;;;;;;1.30;1.02;;;;;;;;;;5086842;28;20040;-68
2022/08/08 03:14:50;;;;;;;2.50;1.50;;;;;;;;;;5078744;28;20081;-67
2022/08/08 03:17:39;;;;;;;3.25;1.55;;;;;;;;;;5088480;28;20030;-66
2022/08/08 03:20:24;;;;;;;2.13;1.45;;;;;;;;;;5090707;28;20306;-68
2022/08/08 03:23:10;;;;;;;4.63;1.60;;;;;;;;;;5094324;28;20036;-66
2022/08/08 03:25:56;;;;;;;2.22;1.60;;;;;;;;;;5083466;28;20408;-67
2022/08/08 03:28:44;;;;;;;2.47;1.33;;;;;;;;;;5088427;28;20589;-68
2022/08/08 03:34:34;;;;;;;2.83;1.48;;;;;;;;;;5089284;28;20032;-61
2022/08/08 03:37:20;;;;;;;2.30;1.25;;;;;;;;;;5089991;28;20377;-61
2022/08/08 03:40:06;;;;;;;2.33;1.40;;;;;;;;;;5090583;28;20067;-62
2022/08/08 03:42:51;;;;;;;1.75;1.45;;;;;;;;;;5081818;28;20031;-61
2022/08/08 03:45:37;;;;;;;3.33;2.10;;;;;;;;;;5088831;27;20036;-62
2022/08/08 03:48:24;;;;;;;2.35;1.48;;;;;;;;;;5079697;28;20027;-72
2022/08/08 03:51:09;;;;;;;2.33;1.48;;;;;;;;;;5090605;27;20126;-70
2022/08/08 03:53:55;;;;;;;3.70;1.67;;;;;;;;;;5089056;28;20063;-69
2022/08/08 03:56:41;;;;;;;3.03;1.55;;;;;;;;;;5085549;28;20035;-68
2022/08/08 03:59:29;;;;;;;3.00;1.45;;;;;;;;;;5088028;28;20028;-68
2022/08/08 04:02:16;;;;;;;2.72;1.30;;;;;;;;;;5086117;28;20555;-70
2022/08/08 04:05:03;;;;;;;3.47;1.67;;;;;;;;;;5085520;28;20040;-74
2022/08/08 04:07:49;;;;;;;2.08;1.77;;;;;;;;;;5079931;28;20390;-61
2022/08/08 04:10:35;;;;;;;2.63;1.88;;;;;;;;;;5073979;28;20447;-73
2022/08/08 04:13:20;;;;;;;1.48;1.38;;;;;;;;;;5087230;28;20016;-73
2022/08/08 04:16:06;;;;;;;3.15;1.88;;;;;;;;;;5087231;28;20481;-73
2022/08/08 04:18:51;;;;;;;3.78;2.00;;;;;;;;;;5090171;28;20035;-74
2022/08/08 04:21:37;;;;;;;2.75;1.45;;;;;;;;;;5080900;28;20455;-73
2022/08/08 04:24:22;;;;;;;4.63;1.65;;;;;;;;;;5089906;28;20028;-64
2022/08/08 04:27:08;;;;;;;2.40;1.48;;;;;;;;;;5086817;22;20059;-60
2022/08/08 04:29:53;;;;;;;5.38;1.90;;;;;;;;;;5088437;28;20024;-61
2022/08/08 04:32:39;;;;;;;4.45;1.85;;;;;;;;;;5089200;28;20514;-61
2022/08/08 04:35:25;;;;;;;2.58;1.35;;;;;;;;;;5090450;28;20142;-60
2022/08/08 04:38:10;;;;;;;6.20;1.95;;;;;;;;;;5098355;28;20393;-61
2022/08/08 04:40:56;;;;;;;3.45;1.60;;;;;;;;;;5090437;28;20031;-60
2022/08/08 04:43:41;;;;;;;2.88;1.98;;;;;;;;;;5090059;28;20016;-61
2022/08/08 04:46:27;;;;;;;3.72;1.80;;;;;;;;;;5089265;28;20377;-63
2022/08/08 04:49:12;;;;;;;2.33;1.58;;;;;;;;;;5088236;28;20024;-60
2022/08/08 04:51:58;;;;;;;2.78;1.42;;;;;;;;;;5077048;28;20077;-60
2022/08/08 04:54:43;;;;;;;2.35;1.67;;;;;;;;;;5090747;28;20389;-61
2022/08/08 04:57:29;;;;;;;4.63;1.75;;;;;;;;;;5091792;28;20031;-61
2022/08/08 05:00:15;;;;;;;3.53;1.67;;;;;;;;;;5088465;28;20076;-61
2022/08/08 05:03:00;;;;;;;4.03;1.80;;;;;;;;;;5071521;28;20137;-59
2022/08/08 05:05:46;;;;;;;3.00;1.75;;;;;;;;;;5091716;28;20466;-60
2022/08/08 05:08:31;;;;;;;4.47;2.00;;;;;;;;;;5079449;28;20111;-59
2022/08/08 05:11:17;;;;;;;4.05;3.28;;;;;;;;;;5084924;28;20434;-58
2022/08/08 05:14:03;;;;;;;3.97;1.52;;;;;;;;;;5093196;28;20028;-60
2022/08/08 05:16:48;;;;;;;4.05;1.48;;;;;;;;;;5067657;28;20032;-59
2022/08/08 05:19:36;;;;;;;3.42;1.63;;;;;;;;;;5081467;28;20521;-63
2022/08/08 05:22:22;;;;;;;1.98;1.45;;;;;;;;;;5088896;28;20028;-59
2022/08/08 05:25:07;;;;;;;2.58;1.58;;;;;;;;;;5066111;28;20043;-60
2022/08/08 05:27:53;;;;;;;7.13;2.95;;;;;;;;;;5096709;28;20363;-60
2022/08/08 05:30:39;;;;;;;4.65;1.92;;;;;;;;;;5087321;28;20039;-60
2022/08/08 05:33:24;;;;;;;3.80;1.60;;;;;;;;;;5083974;28;20046;-61
2022/08/08 05:36:10;;;;;;;2.92;1.70;;;;;;;;;;5085894;28;20034;-62
2022/08/08 05:38:57;;;;;;;3.75;1.60;;;;;;;;;;5084961;28;20025;-68
2022/08/08 05:41:43;;;;;;;3.92;2.17;;;;;;;;;;5082418;28;20032;-61
2022/08/08 05:44:29;;;;;;;4.68;2.08;;;;;;;;;;5087428;28;20024;-62
2022/08/08 05:47:16;;;;;;;5.80;2.00;;;;;;;;;;5081480;28;20107;-61
2022/08/08 05:50:04;;;;;;;5.25;1.95;;;;;;;;;;5080815;28;20033;-63
2022/08/08 05:52:50;;;;;;;4.30;2.08;;;;;;;;;;5088276;28;20394;-63
2022/08/08 05:55:35;;;;;;;4.47;1.90;;;;;;;;;;5077464;28;20032;-62
2022/08/08 05:58:26;;;;;;;2.90;2.03;;;;;;;;;;5089411;28;20039;-64
2022/08/08 06:01:13;;;;;;;3.92;1.50;;;;;;;;;;5090280;28;20083;-65
2022/08/08 06:04:03;;;;;;;6.03;2.60;;;;;;;;;;5077507;28;20036;-63
2022/08/08 06:06:49;;;;;;;3.63;1.55;;;;;;;;;;5084255;28;20360;-63
2022/08/08 06:09:36;;;;;;;4.97;1.85;;;;;;;;;;5076412;28;20111;-64
2022/08/08 06:12:22;;;;;;;4.82;1.90;;;;;;;;;;5093338;28;20028;-62
2022/08/08 06:15:09;;;;;;;3.08;1.65;;;;;;;;;;5085393;28;20541;-77
2022/08/08 06:17:56;;;;;;;4.80;1.52;;;;;;;;;;5090894;28;20394;-74
2022/08/08 06:20:43;;;;;;;4.90;1.60;;;;;;;;;;5080153;28;20032;-74
2022/08/08 06:23:29;;;;;;;4.00;1.67;;;;;;;;;;5090001;28;20114;-74
2022/08/08 06:26:15;;;;;;;4.68;1.95;;;;;;;;;;5084819;28;20494;-74
2022/08/08 06:29:04;;;;;;;2.78;1.38;;;;;;;;;;5082946;28;20016;-75
2022/08/08 06:31:52;;;;;;;4.22;1.95;;;;;;;;;;5090918;28;20032;-76
2022/08/08 06:34:38;;;;;;;4.38;1.95;;;;;;;;;;5090124;28;20059;-67
2022/08/08 06:37:26;;;;;;;4.65;2.30;;;;;;;;;;5065329;28;20020;-76
2022/08/08 06:40:14;;;;;;;4.15;1.70;;;;;;;;;;5085146;28;20019;-77
2022/08/08 06:42:59;;;;;;;5.07;2.28;;;;;;;;;;5092667;28;20032;-77
2022/08/08 06:45:45;;;;;;;4.38;1.60;;;;;;;;;;5095633;28;20032;-77
2022/08/08 06:48:31;;;;;;;2.63;1.80;;;;;;;;;;5079622;28;20027;-77
2022/08/08 06:51:19;;;;;;;4.60;1.58;;;;;;;;;;5090965;28;20020;-70
2022/08/08 06:54:05;;;;;;;2.57;1.70;;;;;;;;;;5094536;28;20071;-70
2022/08/08 06:56:53;;;;;;;2.60;1.70;;;;;;;;;;5070314;28;20037;-68
2022/08/08 06:59:39;;;;;;;6.90;1.67;;;;;;;;;;5088000;28;20028;-69
2022/08/08 07:02:26;;;;;;;3.17;1.70;;;;;;;;;;5076109;28;20321;-69
2022/08/08 07:05:14;;;;;;;1.95;1.30;;;;;;;;;;5079336;28;20095;-69
2022/08/08 07:08:02;;;;;;;1.83;1.17;;;;;;;;;;5080583;28;20118;-70
2022/08/08 07:10:48;;;;;;;4.30;1.93;;;;;;;;;;5088563;28;20024;-70
2022/08/08 07:13:38;;;;;;;2.83;1.73;;;;;;;;;;5090880;28;20668;-73
2022/08/08 07:16:30;;;;;;;3.90;1.48;;;;;;;;;;5090700;28;20028;-74
2022/08/08 07:19:16;;;;;;;3.40;1.45;;;;;;;;;;5091199;28;20036;-73
2022/08/08 07:22:03;;;;;;;2.03;1.30;;;;;;;;;;5084290;28;20033;-73
2022/08/08 07:25:02;;;;;;;3.92;1.65;;;;;;;;;;5087437;28;20453;-72
2022/08/08 07:27:49;;;;;;;3.30;1.50;;;;;;;;;;5087793;28;20028;-71
2022/08/08 07:30:35;;;;;;;1.50;1.40;;;;;;;;;;5093795;28;20035;-75
2022/08/08 07:33:23;;;;;;;2.75;1.60;;;;;;;;;;5085598;28;20112;-76
2022/08/08 07:36:09;;;;;;;1.92;1.48;;;;;;;;;;5077751;28;20020;-78
2022/08/08 07:38:55;;;;;;;2.20;1.45;;;;;;;;;;5086108;28;20048;-77
2022/08/08 07:41:41;;;;;;;3.53;2.05;;;;;;;;;;5088831;28;20024;-74
2022/08/08 07:44:27;;;;;;;4.38;1.60;;;;;;;;;;5089400;28;20031;-73
2022/08/08 07:47:12;;;;;;;3.65;1.58;;;;;;;;;;5082787;28;20438;-69
2022/08/08 07:49:58;;;;;;;3.03;1.45;;;;;;;;;;5082556;28;20032;-80
2022/08/08 07:52:46;;;;;;;3.58;1.80;;;;;;;;;;5070431;28;20401;-80
2022/08/08 07:55:31;;;;;;;4.25;1.88;;;;;;;;;;5084067;28;20058;-79
2022/08/08 07:58:24;;;;;;;3.38;1.63;;;;;;;;;;5087803;28;20040;-78
2022/08/08 08:01:10;;;;;;;3.90;1.63;;;;;;;;;;5089874;28;20040;-80
2022/08/08 08:04:00;;;;;;;4.13;1.80;;;;;;;;;;5074031;28;20025;-78
2022/08/08 08:06:46;;;;;;;3.40;1.70;;;;;;;;;;5068759;28;20387;-71
2022/08/08 08:09:35;;;;;;;3.28;2.20;;;;;;;;;;5070812;28;20374;-74
2022/08/08 08:12:21;;;;;;;2.60;1.90;;;;;;;;;;5069831;28;20114;-70
2022/08/08 08:15:08;;;;;;;2.92;1.98;;;;;;;;;;5087849;28;20032;-73
2022/08/08 08:17:56;;;;;;;6.13;2.15;;;;;;;;;;5073438;28;20463;-70
2022/08/08 08:20:42;;;;;;;2.55;1.80;;;;;;;;;;5084783;28;20047;-70
2022/08/08 08:23:28;;;;;;;4.10;1.70;;;;;;;;;;5071240;28;20036;-68
2022/08/08 08:26:15;;;;;;;5.00;1.92;;;;;;;;;;5084756;28;20032;-74
2022/08/08 08:29:01;;;;;;;3.63;1.83;;;;;;;;;;5084923;28;20466;-75
2022/08/08 08:31:47;;;;;;;5.10;1.88;;;;;;;;;;5093097;28;20105;-73
2022/08/08 08:34:33;;;;;;;5.07;1.75;;;;;;;;;;5085471;28;20027;-73
2022/08/08 08:37:18;;;;;;;3.75;2.10;;;;;;;;;;5085578;28;20031;-73
2022/08/08 08:40:04;;;;;;;2.60;1.45;;;;;;;;;;5096566;28;20042;-74
2022/08/08 08:43:14;;;;;;;2.90;1.75;;;;;;;;;;5094088;28;20495;-76
2022/08/08 08:46:00;;;;;;;5.20;1.77;;;;;;;;;;5090456;28;20031;-72
2022/08/08 08:48:46;;;;;;;2.03;1.75;;;;;;;;;;5081954;28;20040;-74
2022/08/08 08:51:33;;;;;;;2.58;1.40;;;;;;;;;;5064426;28;20420;-73
2022/08/08 08:54:20;;;;;;;2.33;1.70;;;;;;;;;;5089158;28;20028;-74
2022/08/08 08:57:07;;;;;;;1.65;1.50;;;;;;;;;;5089948;28;20028;-71
2022/08/08 08:59:55;;;;;;;2.80;1.73;;;;;;;;;;5089776;28;20038;-70
2022/08/08 09:02:42;;;;;;;;;;;;;;;;;;5090287;28;20478;-80
2022/08/08 09:05:29;;;;;;;3.85;1.42;;;;;;;;;;5082810;28;19912;-79
2022/08/08 09:08:15;;;;;;;2.53;1.60;;;;;;;;;;5074611;28;20134;-81
2022/08/08 09:11:01;;;;;;;2.55;1.48;;;;;;;;;;5090714;28;20028;-83
2022/08/08 09:13:47;;;;;;;3.60;1.50;;;;;;;;;;5082238;28;20024;-84
2022/08/08 09:16:32;;;;;;;2.53;1.60;;;;;;;;;;5089815;28;20023;-81
2022/08/08 09:19:18;;;;;;;3.97;1.63;;;;;;;;;;5075298;28;20038;-74
2022/08/08 09:22:05;;;;;;;2.53;1.33;;;;;;;;;;5086334;28;20422;-78
2022/08/08 09:24:51;;;;;;;3.22;1.65;;;;;;;;;;5069076;28;20029;-79
2022/08/08 09:27:38;;;;;;;3.00;1.67;;;;;;;;;;5068212;28;20024;-79
2022/08/08 09:30:24;;;;;;;3.40;1.65;;;;;;;;;;5084008;28;20043;-82
2022/08/08 09:33:12;;;;;;;6.68;2.20;;;;;;;;;;5092511;28;20024;-82
2022/08/08 09:35:59;;;;;;;2.17;1.80;;;;;;;;;;5085788;28;20532;-70
2022/08/08 09:38:58;;;;;;;1.75;1.65;;;;;;;;;;5089866;28;20028;-68
2022/08/08 09:41:43;;;;;;;;;;;;;;;;;;5085543;28;20035;-78
2022/08/08 09:44:47;;;;;;;3.55;1.33;;;;;;;;;;5090607;28;20301;-77
2022/08/08 09:47:34;;;;;;;3.03;1.60;;;;;;;;;;5091193;28;20073;-79
2022/08/08 09:50:22;;;;;;;1.88;1.30;;;;;;;;;;5083120;28;20035;-80
2022/08/08 09:53:09;;;;;;;2.83;1.73;;;;;;;;;;5087224;28;20028;-79
2022/08/08 09:55:55;;;;;;;2.13;1.20;;;;;;;;;;5087844;28;20039;-79
2022/08/08 09:58:53;;;;;;;2.13;1.30;;;;;;;;;;5083278;28;20035;-79
2022/08/08 10:01:40;;;;;;;1.95;1.50;;;;;;;;;;5087842;28;20248;-78
2022/08/08 10:04:26;;;;;;;3.35;1.17;;;;;;;;;;5088527;28;20355;-77
2022/08/08 10:07:12;;;;;;;5.47;1.88;;;;;;;;;;5079701;28;20436;-77
2022/08/08 10:09:58;;;;;;;3.78;1.50;;;;;;;;;;5085148;28;20040;-80
2022/08/08 10:12:44;;;;;;;3.80;1.30;;;;;;;;;;5090850;28;20067;-70
2022/08/08 10:15:35;;;;;;;3.05;1.48;;;;;;;;;;5086488;28;20024;-74
2022/08/08 10:18:23;;;;;;;2.03;1.40;;;;;;;;;;5085434;28;20028;-69
2022/08/08 10:21:10;;;;;;;1.45;1.25;;;;;;;;;;5081892;28;20074;-69
2022/08/08 10:23:58;;;;;;;2.35;1.50;;;;;;;;;;5082368;28;20070;-67
2022/08/08 10:26:46;;;;;;;3.85;1.52;;;;;;;;;;5076661;28;20429;-69
2022/08/08 10:29:35;;;;;;;4.00;1.92;;;;;;;;;;5077231;28;20078;-69
2022/08/08 10:32:31;;;;;;;2.72;1.65;;;;;;;;;;5082830;28;20043;-73
2022/08/08 10:35:19;;;;;;;2.50;1.50;;;;;;;;;;5087821;28;20035;-68
2022/08/08 10:38:05;;;;;;;2.05;1.60;;;;;;;;;;5089076;28;20039;-67
2022/08/08 10:40:51;;;;;;;2.65;1.20;;;;;;;;;;5085908;28;20032;-68
2022/08/08 10:43:38;;;;;;;2.20;1.50;;;;;;;;;;5089132;28;20058;-67
2022/08/08 10:46:27;;;;;;;2.50;1.65;;;;;;;;;;5089886;28;20466;-68
2022/08/08 10:49:17;;;;;;;6.28;2.05;;;;;;;;;;5088830;28;20027;-70
2022/08/08 10:52:03;;;;;;;1.80;1.40;;;;;;;;;;5077904;28;20060;-72
2022/08/08 10:54:56;;;;;;;4.45;1.70;;;;;;;;;;5088561;28;20512;-72
2022/08/08 10:57:42;;;;;;;2.40;1.40;;;;;;;;;;5076660;28;20135;-70
2022/08/08 11:00:28;;;;;;;2.70;1.60;;;;;;;;;;5084930;28;20020;-69
2022/08/08 11:03:15;;;;;;;2.28;1.50;;;;;;;;;;5080474;28;20032;-69
2022/08/08 11:06:00;;;;;;;3.92;1.90;;;;;;;;;;5094118;28;20111;-70
2022/08/08 11:08:46;;;;;;;3.95;1.60;;;;;;;;;;5093799;28;20522;-82
2022/08/08 11:11:38;;;;;;;4.35;1.65;;;;;;;;;;5087859;28;20071;-72
2022/08/08 11:14:24;;;;;;;2.75;1.25;;;;;;;;;;5055583;28;20024;-69
2022/08/08 11:17:09;;;;;;;2.63;1.75;;;;;;;;;;5076717;28;20121;-69
2022/08/08 11:19:55;;;;;;;2.95;1.73;;;;;;;;;;5085188;28;20024;-69
2022/08/08 11:22:41;;;;;;;3.17;1.70;;;;;;;;;;5087476;28;20031;-69
2022/08/08 11:25:29;;;;;;;4.53;1.70;;;;;;;;;;5085953;28;20034;-69
2022/08/08 11:28:16;;;;;;;3.08;1.70;;;;;;;;;;5088430;28;20056;-80
2022/08/08 11:31:02;;;;;;;1.98;1.58;;;;;;;;;;5087938;28;20059;-82
2022/08/08 11:33:49;;;;;;;2.30;1.58;;;;;;;;;;5093338;28;20111;-80
2022/08/08 11:36:36;;;;;;;2.92;1.60;;;;;;;;;;5090284;28;20028;-79
2022/08/08 11:39:21;;;;;;;1.45;1.27;;;;;;;;;;5093458;28;20088;-81
2022/08/08 11:42:07;;;;;;;1.75;1.10;;;;;;;;;;5077550;28;20090;-78
2022/08/08 11:44:56;;;;;;;1.33;1.20;;;;;;;;;;5082941;28;20032;-71
2022/08/08 11:47:41;;;;;;;2.05;1.20;;;;;;;;;;5091751;28;20039;-71
2022/08/08 11:50:29;;;;;;;1.80;1.10;;;;;;;;;;5088003;28;20043;-73
2022/08/08 11:53:14;;;;;;;2.78;1.45;;;;;;;;;;5096288;28;20042;-73
2022/08/08 11:56:00;;;;;;;3.40;1.20;;;;;;;;;;5081657;28;20028;-73
2022/08/08 11:58:46;;;;;;;1.27;1.13;;;;;;;;;;5081569;28;20110;-73
2022/08/08 12:01:32;;;;;;;1.40;1.27;;;;;;;;;;5074007;28;20447;-74
2022/08/08 12:04:18;;;;;;;1.73;1.40;;;;;;;;;;5091470;28;20115;-78
2022/08/08 12:07:07;;;;;;;1.45;1.23;;;;;;;;;;5065914;28;20094;-72
2022/08/08 12:09:53;;;;;;;;;;;;;;;;;;5077364;28;20024;-73
2022/08/08 12:12:42;;;;;;;2.55;1.73;;;;;;;;;;5082770;28;19912;-74
2022/08/08 12:15:29;;;;;;;4.60;1.38;;;;;;;;;;5087066;28;20028;-73
2022/08/08 12:18:20;;;;;;;2.13;1.42;;;;;;;;;;5076701;28;20036;-73
2022/08/08 12:21:17;;;;;;;1.25;1.10;;;;;;;;;;5087632;28;20028;-72
2022/08/08 12:24:05;;;;;;;1.42;1.00;;;;;;;;;;5081148;28;20033;-81
2022/08/08 12:26:51;;;;;;;2.40;1.52;;;;;;;;;;5060448;28;20036;-70
2022/08/08 12:29:37;;;;;;;2.53;1.45;;;;;;;;;;5091749;28;20032;-69
2022/08/08 12:32:22;;;;;;;3.92;1.27;;;;;;;;;;5085461;28;20035;-69
2022/08/08 12:35:17;;;;;;;4.35;1.30;;;;;;;;;;5079823;28;20063;-70
2022/08/08 12:38:06;;;;;;;2.90;1.33;;;;;;;;;;5080512;28;20131;-69
2022/08/08 12:40:52;;;;;;;1.73;1.20;;;;;;;;;;5083660;28;20047;-78
2022/08/08 12:43:38;;;;;;;2.38;1.10;;;;;;;;;;5091653;28;20047;-69
2022/08/08 12:46:24;;;;;;;2.08;1.33;;;;;;;;;;5064814;28;20529;-70
2022/08/08 12:49:09;;;;;;;4.57;1.05;;;;;;;;;;5062544;28;20020;-73
2022/08/08 12:51:55;;;;;;;4.38;1.50;;;;;;;;;;5081088;28;20051;-71
2022/08/08 12:54:40;;;;;;;2.78;1.20;;;;;;;;;;5083850;28;20620;-71
2022/08/08 12:57:27;;;;;;;2.28;1.30;;;;;;;;;;5083730;28;20028;-71
2022/08/08 13:00:13;;;;;;;2.92;1.20;;;;;;;;;;5075345;28;20055;-73
2022/08/08 13:02:58;;;;;;;2.00;1.30;;;;;;;;;;5066144;28;20142;-76
2022/08/08 13:05:44;;;;;;;4.90;1.40;;;;;;;;;;5067537;28;20031;-78
2022/08/08 13:08:38;;;;;;;2.60;1.30;;;;;;;;;;5090978;28;20028;-76
2022/08/08 13:11:25;;;;;;;1.55;1.25;;;;;;;;;;5085572;28;20032;-79
2022/08/08 13:14:13;;;;;;;1.85;1.20;;;;;;;;;;5092229;28;20028;-76
2022/08/08 13:16:58;;;;;;;3.67;1.50;;;;;;;;;;5070817;28;20489;-69
2022/08/08 13:19:45;;;;;;;2.00;1.20;;;;;;;;;;5074477;28;20038;-78
2022/08/08 13:22:34;;;;;;;1.65;1.45;;;;;;;;;;5069222;28;20040;-71
2022/08/08 13:25:20;;;;;;;3.42;1.40;;;;;;;;;;5069851;28;20146;-72
2022/08/08 13:28:05;;;;;;;1.88;1.30;;;;;;;;;;5082912;28;20024;-70
2022/08/08 13:30:53;;;;;;;1.60;1.10;;;;;;;;;;5088229;28;20019;-70
2022/08/08 13:33:39;;;;;;;3.33;1.20;;;;;;;;;;5085964;28;20024;-72
2022/08/08 13:36:25;;;;;;;2.30;1.00;;;;;;;;;;5084476;28;20029;-68
2022/08/08 13:39:13;;;;;;;2.92;1.30;;;;;;;;;;5090934;28;20023;-76
2022/08/08 13:41:59;;;;;;;2.80;1.50;;;;;;;;;;5057778;28;20043;-77
2022/08/08 13:44:45;;;;;;;2.50;1.40;;;;;;;;;;5085271;28;20036;-79
2022/08/08 13:47:31;;;;;;;4.10;1.58;;;;;;;;;;5088943;28;20274;-80
2022/08/08 13:50:18;;;;;;;4.68;1.50;;;;;;;;;;5072842;28;20040;-76
2022/08/08 13:53:04;;;;;;;3.13;1.58;;;;;;;;;;5098810;28;20035;-76
2022/08/08 13:55:59;;;;;;;1.65;1.20;;;;;;;;;;5072016;28;20471;-73
2022/08/08 13:58:49;;;;;;;1.58;1.20;;;;;;;;;;5086578;28;20040;-73
2022/08/08 14:01:35;;;;;;;2.92;1.58;;;;;;;;;;5087677;28;20353;-69
2022/08/08 14:04:21;;;;;;;2.58;1.45;;;;;;;;;;5083109;28;20024;-65
2022/08/08 14:07:07;;;;;;;2.95;1.20;;;;;;;;;;5079660;28;20154;-68
2022/08/08 14:10:19;;;;;;;1.58;1.10;;;;;;;;;;5087975;28;20017;-67
2022/08/08 14:13:09;;;;;;;2.17;1.70;;;;;;;;;;5066903;28;20029;-66
2022/08/08 14:16:01;;;;;;;1.10;1.00;;;;;;;;;;5089775;28;20032;-61
2022/08/08 14:18:54;;;;;;;1.10;0.93;;;;;;;;;;5088814;28;20099;-62
2022/08/08 14:21:43;;;;;;;3.40;1.27;;;;;;;;;;5085915;28;20085;-63
2022/08/08 14:24:30;;;;;;;3.65;1.13;;;;;;;;;;5091417;28;20481;-61
2022/08/08 14:27:20;;;;;;;3.40;1.50;;;;;;;;;;5078661;28;20030;-62
2022/08/08 14:30:08;;;;;;;11.95;2.03;;;;;;;;;;5071346;28;20024;-64
2022/08/08 14:32:55;;;;;;;2.33;1.52;;;;;;;;;;5073466;28;20024;-70
2022/08/08 14:35:41;;;;;;;3.42;1.38;;;;;;;;;;5087151;28;20356;-62
2022/08/08 14:38:30;;;;;;;3.17;1.23;;;;;;;;;;5085510;28;20087;-61
2022/08/08 14:41:15;;;;;;;;;;;;;;;;;;5095638;28;20027;-67
2022/08/08 14:44:01;;;;;;;1.10;1.00;;;;;;;;;;5074458;28;19912;-68
2022/08/08 14:46:55;;;;;;;3.38;2.00;;;;;;;;;;5092590;28;20374;-68
2022/08/08 14:49:41;;;;;;;4.15;1.50;;;;;;;;;;5090848;28;20066;-70
2022/08/08 14:52:37;;;;;;;2.15;1.33;;;;;;;;;;5069146;28;20036;-69
2022/08/08 14:55:23;;;;;;;2.60;1.10;;;;;;;;;;5085516;28;20032;-70
2022/08/08 14:58:09;;;;;;;1.88;1.45;;;;;;;;;;5079184;28;20052;-69
2022/08/08 15:00:55;;;;;;;4.10;1.40;;;;;;;;;;5081265;28;20039;-69
2022/08/08 15:03:40;;;;;;;4.97;1.30;;;;;;;;;;5065630;28;20031;-68
2022/08/08 15:06:26;;;;;;;2.17;1.30;;;;;;;;;;5088384;28;20043;-69
2022/08/08 15:09:12;;;;;;;1.45;1.35;;;;;;;;;;5084580;28;20069;-78
2022/08/08 15:11:58;;;;;;;1.77;1.17;;;;;;;;;;5087710;28;20485;-73
2022/08/08 15:14:43;;;;;;;2.00;0.93;;;;;;;;;;5089026;28;20044;-74
2022/08/08 15:17:29;;;;;;;3.45;1.38;;;;;;;;;;5082642;28;20458;-73
2022/08/08 15:20:15;;;;;;;1.30;1.17;;;;;;;;;;5081805;28;20035;-72
2022/08/08 15:23:01;;;;;;;1.33;1.20;;;;;;;;;;5089939;28;20161;-72
2022/08/08 15:25:47;;;;;;;2.22;1.15;;;;;;;;;;5094225;28;20478;-68
2022/08/08 15:28:33;;;;;;;2.80;1.33;;;;;;;;;;5099341;28;20067;-76
2022/08/08 15:31:18;;;;;;;1.40;1.17;;;;;;;;;;5091477;28;20032;-68
2022/08/08 15:34:04;;;;;;;2.42;1.27;;;;;;;;;;5066804;28;20029;-69
2022/08/08 15:36:49;;;;;;;1.88;1.00;;;;;;;;;;5069539;28;20116;-69
2022/08/08 15:39:36;;;;;;;1.40;1.30;;;;;;;;;;5075760;28;20107;-69
2022/08/08 15:42:21;;;;;;;2.42;1.27;;;;;;;;;;5099936;28;20150;-70
2022/08/08 15:45:09;;;;;;;5.70;1.35;;;;;;;;;;5073894;28;20469;-74
2022/08/08 15:47:55;;;;;;;3.78;1.25;;;;;;;;;;5091702;28;20661;-74
2022/08/08 15:50:59;;;;;;;2.22;1.45;;;;;;;;;;5096800;28;20020;-74
2022/08/08 15:53:45;;;;;;;2.38;0.93;;;;;;;;;;5072677;28;20024;-73
2022/08/08 15:56:31;;;;;;;2.25;1.00;;;;;;;;;;5092488;28;20016;-74
2022/08/08 15:59:16;;;;;;;1.42;1.05;;;;;;;;;;5079943;28;20064;-74
2022/08/08 16:02:02;;;;;;;2.60;1.40;;;;;;;;;;5066286;28;20093;-74
2022/08/08 16:04:47;;;;;;;1.85;1.52;;;;;;;;;;5076570;28;20099;-72
2022/08/08 16:07:33;;;;;;;2.88;1.00;;;;;;;;;;5078448;28;20115;-68
2022/08/08 16:10:19;;;;;;;4.15;1.10;;;;;;;;;;5077203;28;20107;-67
2022/08/08 16:13:05;;;;;;;2.25;1.20;;;;;;;;;;5078717;28;20432;-68
2022/08/08 16:15:51;;;;;;;3.65;1.20;;;;;;;;;;5082187;28;20021;-68
2022/08/08 16:18:36;;;;;;;1.98;1.10;;;;;;;;;;5076723;28;20024;-67
2022/08/08 16:21:22;;;;;;;2.00;1.13;;;;;;;;;;5094177;28;20082;-73
2022/08/08 16:24:08;;;;;;;1.55;1.20;;;;;;;;;;5081382;28;20419;-80
2022/08/08 16:26:54;;;;;;;1.88;1.23;;;;;;;;;;5090846;28;20086;-78
2022/08/08 16:29:39;;;;;;;2.25;1.30;;;;;;;;;;5100801;28;20027;-75
2022/08/08 16:32:25;;;;;;;6.88;1.48;;;;;;;;;;5084570;28;20445;-79
2022/08/08 16:35:11;;;;;;;1.63;1.20;;;;;;;;;;5091285;28;20042;-77
2022/08/08 16:37:56;;;;;;;6.53;2.03;;;;;;;;;;5090351;28;20027;-77
2022/08/08 16:40:42;;;;;;;2.33;1.30;;;;;;;;;;5076490;28;20099;-74
2022/08/08 16:43:28;;;;;;;2.47;1.10;;;;;;;;;;5073846;28;20039;-73
2022/08/08 16:46:13;;;;;;;2.35;1.13;;;;;;;;;;5079776;28;20390;-75
2022/08/08 16:48:59;;;;;;;1.60;1.23;;;;;;;;;;5086315;28;20106;-68
2022/08/08 16:51:45;;;;;;;18.58;5.80;;;;;;;;;;5089482;28;20032;-68
2022/08/08 16:54:31;;;;;;;10.05;3.60;;;;;;;;;;5095874;28;20112;-69
2022/08/08 16:57:19;;;;;;;12.85;4.57;;;;;;;;;;5066820;28;20024;-69
2022/08/08 17:00:05;;;;;;;7.75;2.80;;;;;;;;;;5094982;28;20035;-62
2022/08/08 17:02:51;;;;;;;9.35;3.53;;;;;;;;;;5084704;28;20032;-62
2022/08/08 17:05:36;;;;;;;5.45;2.00;;;;;;;;;;5090666;28;20416;-61